Data for 01/12/2009

Time Sea-Level Adjusted Pressure Absolute Pressure Temperature Relative Humidity Dew Point   
(mb) (inHg) (mb) (inHg) (C) (F) (%) (C) (F)
00:05 1024 30.24 854 25.22 2.3 36.2 60 -4.6 23.8
00:10 1024 30.24 854 25.22 2.3 36.1 59 -4.9 23.1
00:15 1024 30.24 854 25.22 2.2 36 59 -5 22.9
00:20 1024 30.24 854 25.22 2.3 36.1 58 -5.2 22.7
00:25 1025 30.27 854 25.22 2.2 36 57 -5.4 22.3
00:30 1024 30.24 854 25.22 2.1 35.8 57 -5.6 22
00:35 1024 30.24 854 25.22 2.1 35.8 57 -5.6 21.9
00:40 1024 30.24 854 25.22 2 35.6 57 -5.7 21.8
00:45 1024 30.24 854 25.22 1.9 35.4 58 -5.6 21.9
00:50 1024 30.24 854 25.22 1.8 35.2 57 -5.8 21.6
00:55 1025 30.27 854 25.22 1.7 35.1 58 -5.6 21.9
01:00 1025 30.27 854 25.22 1.7 35.1 57 -5.9 21.4
01:05 1025 30.27 854 25.22 1.9 35.3 55 -6.2 20.8
01:10 1025 30.27 854 25.22 1.8 35.3 56 -6.1 21.1
01:15 1025 30.27 854 25.22 1.7 35.1 56 -6.1 21
01:20 1025 30.27 854 25.22 1.7 35 57 -5.9 21.3
01:25 1025 30.27 854 25.22 1.6 34.9 57 -6 21.2
01:30 1025 30.27 854 25.22 1.5 34.8 58 -5.9 21.3
01:35 1025 30.27 854 25.22 1.5 34.6 58 -5.8 21.5
01:40 1025 30.27 854 25.22 1.3 34.4 60 -5.6 22
01:45 1025 30.27 855 25.25 1.1 34.1 61 -5.5 22.1
01:50 1025 30.27 855 25.25 0.9 33.7 62 -5.5 22.1
01:55 1026 30.3 855 25.25 0.8 33.4 63 -5.4 22.3
02:00 1026 30.3 855 25.25 0.7 33.2 64 -5.5 22.2
02:05 1026 30.3 855 25.25 0.6 33.1 64 -5.5 22
02:10 1026 30.3 855 25.25 0.5 33 64 -5.6 22
02:15 1026 30.3 855 25.25 0.4 32.8 63 -5.7 21.7
02:20 1026 30.3 855 25.25 0.3 32.6 64 -5.7 21.7
02:25 1026 30.3 856 25.28 0.1 32.3 65 -5.7 21.7
02:30 1026 30.3 856 25.28 0 32 65 -5.8 21.6
02:35 1027 30.33 856 25.28 -0 32 64 -6 21.2
02:40 1027 30.33 856 25.28 0 32 64 -6 21.2
02:45 1027 30.33 856 25.28 0 32.1 63 -6.1 21
02:50 1027 30.33 856 25.28 0 32.1 63 -6.1 21
02:55 1027 30.33 856 25.28 0 32.1 63 -6.1 20.9
03:00 1027 30.33 856 25.28 -0 32 63 -6.3 20.6
03:05 1027 30.33 856 25.28 0 32 62 -6.5 20.3
03:10 1027 30.33 856 25.28 0.1 32.2 59 -6.9 19.6
03:15 1027 30.33 856 25.28 0.2 32.3 59 -7 19.4
03:20 1027 30.33 856 25.28 0.1 32.3 59 -7 19.4
03:25 1027 30.33 856 25.28 0.1 32.3 57 -7.3 18.9
03:30 1027 30.33 857 25.31 0.2 32.3 57 -7.3 18.9
03:35 1027 30.33 857 25.31 0.1 32.1 58 -7.2 19
03:40 1027 30.33 857 25.31 -0.1 31.7 59 -7.2 19.1
03:45 1027 30.33 857 25.31 -0.5 31.2 62 -6.9 19.5
03:50 1028 30.36 857 25.31 -0.8 30.6 63 -6.9 19.6
03:55 1028 30.36 857 25.31 -1 30.2 64 -7 19.4
04:00 1028 30.36 857 25.31 -1 30.2 64 -7 19.5
04:05 1028 30.36 857 25.31 -1 30.2 64 -6.9 19.6
04:10 1028 30.36 857 25.31 -1 30.2 65 -6.9 19.7
04:15 1028 30.36 857 25.31 -1.1 30 65 -6.9 19.5
04:20 1028 30.36 857 25.31 -1.2 29.8 66 -6.9 19.6
04:25 1028 30.36 857 25.31 -1.4 29.5 66 -7 19.4
04:30 1028 30.36 857 25.31 -1.3 29.7 65 -7 19.4
04:35 1028 30.36 857 25.31 -1.3 29.6 66 -7 19.5
04:40 1028 30.36 857 25.31 -1.4 29.5 66 -6.9 19.5
04:45 1028 30.36 857 25.31 -1.7 28.9 66 -7.2 19
04:50 1028 30.36 857 25.31 -1.7 28.9 66 -7.3 18.9
04:55 1028 30.36 857 25.31 -1.9 28.6 66 -7.5 18.5
05:00 1028 30.36 857 25.31 -1.8 28.8 65 -7.6 18.3
05:05 1028 30.36 857 25.31 -2.2 28.1 66 -7.8 18
05:10 1028 30.36 857 25.31 -2.6 27.3 67 -7.8 17.9
05:15 1028 30.36 857 25.31 -2.5 27.6 65 -8.1 17.4
05:20 1028 30.36 857 25.31 -2 28.4 65 -7.6 18.2
05:25 1028 30.36 857 25.31 -1.9 28.6 65 -7.7 18.2
05:30 1028 30.36 857 25.31 -1.9 28.6 65 -7.6 18.3
05:35 1028 30.36 857 25.31 -2.1 28.3 66 -7.6 18.4
05:40 1028 30.36 857 25.31 -1.9 28.6 65 -7.5 18.4
05:45 1028 30.36 857 25.31 -1.6 29.1 65 -7.4 18.6
05:50 1028 30.36 857 25.31 -1.6 29.2 65 -7.3 18.8
05:55 1028 30.36 857 25.31 -1.5 29.4 65 -7.3 18.9
06:00 1028 30.36 857 25.31 -1.5 29.4 65 -7.3 18.9
06:05 1028 30.36 858 25.34 -1.5 29.3 64 -7.4 18.7
06:10 1028 30.36 858 25.34 -1.5 29.3 65 -7.3 18.8
06:15 1028 30.36 858 25.34 -1.5 29.3 64 -7.5 18.6
06:20 1028 30.36 858 25.34 -1.4 29.5 64 -7.4 18.7
06:25 1029 30.39 858 25.34 -1.4 29.5 64 -7.3 18.9
06:30 1028 30.36 858 25.34 -1.5 29.3 65 -7.3 18.8
06:35 1028 30.36 858 25.34 -1.5 29.3 65 -7.3 18.8
06:40 1028 30.36 858 25.34 -1.5 29.4 64 -7.3 18.8
06:45 1029 30.39 858 25.34 -1.4 29.5 64 -7.3 18.9
06:50 1029 30.39 858 25.34 -1.5 29.4 64 -7.3 18.8
06:55 1029 30.39 858 25.34 -1.5 29.2 65 -7.3 18.8
07:00 1029 30.39 858 25.34 -1.5 29.3 65 -7.3 18.8
07:05 1029 30.39 858 25.34 -1.5 29.2 65 -7.2 19.1
07:10 1029 30.39 858 25.34 -1.7 28.9 66 -7.3 18.8
07:15 1029 30.39 858 25.34 -1.7 28.9 65 -7.4 18.7
07:20 1029 30.39 858 25.34 -1.6 29.1 65 -7.3 18.9
07:25 1029 30.39 858 25.34 -1.7 29 65 -7.5 18.5
07:30 1029 30.39 858 25.34 -2.3 27.8 67 -7.6 18.4
07:35 1029 30.39 858 25.34 -2.8 27 68 -7.8 18
07:40 1029 30.39 858 25.34 -2.7 27.1 70 -7.5 18.5
07:45 1029 30.39 858 25.34 -2.8 27 69 -7.8 18
07:50 1029 30.39 858 25.34 -3.1 26.4 71 -7.7 18.2
07:55 1029 30.39 858 25.34 -3.2 26.2 72 -7.6 18.3
08:00 1029 30.39 858 25.34 -3 26.5 70 -7.8 17.9
08:05 1029 30.39 858 25.34 -2.7 27.1 69 -7.7 18.1
08:10 1029 30.39 858 25.34 -2.7 27.2 68 -7.8 17.9
08:15 1029 30.39 858 25.34 -2.6 27.4 68 -7.6 18.3
08:20 1029 30.39 858 25.34 -2.8 26.9 69 -7.8 17.9
08:25 1029 30.39 858 25.34 -3 26.6 69 -7.8 18
08:30 1029 30.39 858 25.34 -2.7 27.1 68 -7.9 17.8
08:35 1029 30.39 858 25.34 -2.4 27.7 66 -8 17.7
08:40 1029 30.39 858 25.34 -2.1 28.2 66 -7.6 18.3
08:45 1029 30.39 858 25.34 -2.1 28.2 67 -7.5 18.5
08:50 1029 30.39 858 25.34 -2.3 27.8 68 -7.5 18.4
08:55 1029 30.39 858 25.34 -2.1 28.2 66 -7.7 18.2
09:00 1029 30.39 858 25.34 -1.9 28.7 66 -7.5 18.6
09:05 1029 30.39 858 25.34 -1.7 29 65 -7.5 18.6
09:10 1029 30.39 858 25.34 -1.7 29 66 -7.2 19
09:15 1029 30.39 858 25.34 -1.8 28.8 66 -7.3 18.9
09:20 1029 30.39 858 25.34 -1.5 29.3 64 -7.4 18.7
09:25 1029 30.39 858 25.34 -1.4 29.5 64 -7.3 18.9
09:30 1029 30.39 859 25.37 -1.4 29.5 64 -7.3 18.8
09:35 1029 30.39 859 25.37 -1.2 29.8 64 -7.2 19.1
09:40 1030 30.42 859 25.37 -1.1 30.1 62 -7.6 18.4
09:45 1030 30.42 859 25.37 -0.7 30.7 60 -7.6 18.4
09:50 1030 30.42 859 25.37 -0.5 31.1 60 -7.4 18.6
09:55 1030 30.42 859 25.37 -0.6 30.9 60 -7.4 18.7
10:00 1030 30.42 859 25.37 -0.7 30.8 59 -7.6 18.3
10:05 1030 30.42 859 25.37 -0.3 31.5 56 -8.1 17.5
10:10 1030 30.42 859 25.37 0.2 32.3 54 -8.1 17.5
10:15 1030 30.42 859 25.37 0.6 33.2 54 -7.6 18.3
10:20 1029 30.39 859 25.37 0.4 32.7 57 -7.2 19
10:25 1030 30.42 859 25.37 0.3 32.5 57 -7.4 18.7
10:30 1030 30.42 859 25.37 0.6 33.1 52 -8.1 17.4
10:35 1030 30.42 859 25.37 0.9 33.7 51 -8.2 17.2
10:40 1030 30.42 859 25.37 1 33.9 50 -8.4 17
10:45 1030 30.42 859 25.37 1.4 34.4 49 -8.2 17.3
10:50 1030 30.42 859 25.37 1.4 34.5 50 -7.9 17.8
10:55 1030 30.42 859 25.37 1.5 34.7 51 -7.6 18.3
11:00 1029 30.39 859 25.37 1.5 34.7 49 -8.1 17.5
11:05 1029 30.39 859 25.37 1.3 34.4 50 -8 17.5
11:10 1029 30.39 859 25.37 1.1 34.1 52 -7.7 18.2
11:15 1029 30.39 859 25.37 1.1 34 52 -7.6 18.3
11:20 1029 30.39 858 25.34 1.2 34.1 53 -7.4 18.7
11:25 1029 30.39 858 25.34 1.4 34.5 52 -7.5 18.5
11:30 1029 30.39 858 25.34 1.6 34.8 52 -7.3 18.9
11:35 1029 30.39 858 25.34 1.7 35.1 50 -7.5 18.5
11:40 1029 30.39 858 25.34 2.1 35.7 50 -7.4 18.7
11:45 1029 30.39 858 25.34 2.3 36.1 49 -7.3 18.8
11:50 1029 30.39 858 25.34 2.4 36.3 49 -7.4 18.7
11:55 1029 30.39 858 25.34 2.6 36.6 48 -7.4 18.6
12:00 1029 30.39 858 25.34 2.5 36.5 49 -7.2 19.1
12:05 1029 30.39 858 25.34 2.7 36.9 49 -7 19.4
12:10 1028 30.36 858 25.34 2.8 37.1 49 -6.9 19.6
12:15 1028 30.36 858 25.34 2.9 37.2 48 -7.2 19.1
12:20 1028 30.36 857 25.31 2.9 37.3 48 -7.1 19.2
12:25 1028 30.36 857 25.31 3 37.4 47 -7.2 19
12:30 1028 30.36 857 25.31 3.2 37.8 47 -7.1 19.1
12:35 1028 30.36 857 25.31 3.4 38.1 46 -7.1 19.3
12:40 1028 30.36 857 25.31 3.4 38 46 -7 19.3
12:45 1028 30.36 857 25.31 3.6 38.4 47 -6.7 20
12:50 1028 30.36 857 25.31 3.7 38.6 46 -6.8 19.7
12:55 1028 30.36 857 25.31 3.6 38.6 46 -6.9 19.7
13:00 1028 30.36 857 25.31 3.7 38.6 47 -6.6 20.1
13:05 1028 30.36 857 25.31 3.4 38.2 48 -6.6 20.2
13:10 1028 30.36 857 25.31 3.4 38 48 -6.5 20.2
13:15 1027 30.33 857 25.31 3.4 38.2 48 -6.6 20
13:20 1027 30.33 857 25.31 3.4 38.1 48 -6.5 20.3
13:25 1027 30.33 857 25.31 3.5 38.2 48 -6.6 20
13:30 1027 30.33 856 25.28 3.4 38.2 48 -6.7 20
13:35 1027 30.33 856 25.28 3.6 38.5 46 -6.8 19.7
13:40 1027 30.33 856 25.28 4.1 39.4 44 -7 19.5
13:45 1027 30.33 856 25.28 3.9 39 47 -6.4 20.5
13:50 1027 30.33 856 25.28 3.1 37.6 47 -7.2 19
13:55 1027 30.33 856 25.28 3.3 37.9 47 -7 19.4
14:00 1027 30.33 856 25.28 3.2 37.8 47 -7.1 19.2
14:05 1027 30.33 856 25.28 3 37.4 48 -7.1 19.3
14:10 1027 30.33 856 25.28 2.8 37.1 49 -7 19.5
14:15 1027 30.33 856 25.28 3.3 38 46 -7.2 19.1
14:20 1027 30.33 856 25.28 3.4 38.2 46 -7 19.3
14:25 1027 30.33 856 25.28 3.3 38 46 -7.2 19.1
14:30 1027 30.33 856 25.28 3.5 38.2 46 -7 19.4
14:35 1027 30.33 856 25.28 3.6 38.4 46 -7 19.4
14:40 1027 30.33 856 25.28 3.4 38.2 46 -7 19.4
14:45 1027 30.33 856 25.28 3.4 38.1 46 -7.1 19.2
14:50 1027 30.33 856 25.28 3.6 38.5 47 -6.8 19.8
14:55 1027 30.33 856 25.28 3.6 38.5 46 -6.9 19.5
15:00 1027 30.33 856 25.28 3.6 38.5 47 -6.7 20
15:05 1027 30.33 856 25.28 3.5 38.4 48 -6.6 20.1
15:10 1027 30.33 856 25.28 3.5 38.4 46 -7.1 19.3
15:15 1027 30.33 856 25.28 3.6 38.4 45 -7.3 18.8
15:20 1027 30.33 856 25.28 3.5 38.3 46 -7.1 19.2
15:25 1027 30.33 856 25.28 3.5 38.2 46 -7.2 19.1
15:30 1027 30.33 856 25.28 3.4 38.2 46 -7.1 19.2
15:35 1027 30.33 856 25.28 3.3 38 46 -7.1 19.3
15:40 1027 30.33 856 25.28 3.2 37.8 47 -7 19.4
15:45 1027 30.33 856 25.28 3.3 37.9 48 -6.6 20.1
15:50 1027 30.33 856 25.28 3.1 37.6 53 -5.5 22.1
15:55 1027 30.33 856 25.28 2.6 36.7 56 -5.2 22.6
16:00 1026 30.3 856 25.28 2.4 36.3 55 -5.9 21.5
16:05 1027 30.33 856 25.28 2.5 36.6 52 -6.3 20.6
16:10 1026 30.3 856 25.28 2.7 36.8 51 -6.5 20.2
16:15 1026 30.3 856 25.28 2.7 36.9 52 -6.3 20.7
16:20 1026 30.3 856 25.28 2.8 37 50 -6.7 20
16:25 1026 30.3 856 25.28 2.9 37.2 51 -6.2 20.8
16:30 1026 30.3 856 25.28 3 37.4 50 -6.5 20.3
16:35 1026 30.3 856 25.28 3.1 37.6 49 -6.6 20.1
16:40 1026 30.3 856 25.28 3 37.5 52 -5.9 21.5
16:45 1026 30.3 856 25.28 2.8 37.1 51 -6.3 20.6
16:50 1027 30.33 856 25.28 2.8 37.1 53 -5.9 21.4
16:55 1027 30.33 856 25.28 2.8 37 52 -6 21.2
17:00 1027 30.33 856 25.28 2.8 37.1 53 -5.9 21.3
17:05 1027 30.33 856 25.28 2.9 37.2 54 -5.6 22
17:10 1027 30.33 856 25.28 2.9 37.3 54 -5.4 22.2
17:15 1027 30.33 856 25.28 3 37.4 53 -5.6 22
17:20 1027 30.33 856 25.28 3 37.3 55 -5.3 22.5
17:25 1027 30.33 856 25.28 2.9 37.3 55 -5.3 22.5
17:30 1027 30.33 856 25.28 3.1 37.5 56 -4.8 23.4
17:35 1027 30.33 856 25.28 3.2 37.7 57 -4.4 24
17:40 1027 30.33 856 25.28 3.4 38.1 57 -4.2 24.4
17:45 1027 30.33 856 25.28 3.6 38.4 56 -4.3 24.2
17:50 1027 30.33 856 25.28 3.7 38.6 55 -4.6 23.8
17:55 1027 30.33 856 25.28 3.8 38.8 54 -4.6 23.7
18:00 1027 30.33 856 25.28 3.9 39.1 54 -4.6 23.8
18:05 1026 30.3 856 25.28 4 39.1 55 -4.4 24.1
18:10 1026 30.3 855 25.25 3.9 39.1 54 -4.4 24
18:15 1026 30.3 855 25.25 3.9 39.1 55 -4.4 24.2
18:20 1026 30.3 855 25.25 3.9 39 55 -4.3 24.2
18:25 1026 30.3 855 25.25 3.9 39 55 -4.4 24.1
18:30 1026 30.3 855 25.25 3.9 39 55 -4.4 24.1
18:35 1026 30.3 855 25.25 3.9 39.1 55 -4.3 24.3
18:40 1026 30.3 855 25.25 3.9 39.1 56 -4.1 24.5
18:45 1026 30.3 855 25.25 3.8 38.9 55 -4.4 24.1
18:50 1026 30.3 855 25.25 3.8 38.9 56 -4.2 24.5
18:55 1026 30.3 855 25.25 3.9 39 55 -4.3 24.3
19:00 1026 30.3 855 25.25 4 39.1 55 -4.2 24.4
19:05 1026 30.3 855 25.25 3.9 39.1 55 -4.4 24.1
19:10 1026 30.3 855 25.25 4 39.2 55 -4.2 24.5
19:15 1026 30.3 855 25.25 3.8 38.9 55 -4.3 24.2
19:20 1026 30.3 855 25.25 3.7 38.6 57 -4 24.8
19:25 1026 30.3 855 25.25 3.5 38.4 57 -4.2 24.5
19:30 1026 30.3 855 25.25 3.5 38.3 57 -4.1 24.6
19:35 1026 30.3 855 25.25 3.6 38.4 57 -4.1 24.7
19:40 1026 30.3 855 25.25 3.5 38.2 58 -4.1 24.5
19:45 1026 30.3 855 25.25 3.5 38.2 57 -4.2 24.4
19:50 1025 30.27 855 25.25 3.4 38.2 58 -4 24.8
19:55 1025 30.27 855 25.25 3.3 38 59 -4 24.7
20:00 1025 30.27 855 25.25 3.1 37.6 58 -4.3 24.3
20:05 1025 30.27 854 25.22 3 37.4 60 -4 24.9
20:10 1025 30.27 854 25.22 2.9 37.1 60 -4.1 24.7
20:15 1025 30.27 854 25.22 2.7 36.8 61 -4.1 24.6
20:20 1025 30.27 854 25.22 2.6 36.7 62 -3.9 25
20:25 1025 30.27 854 25.22 2.4 36.4 63 -3.9 25
20:30 1025 30.27 854 25.22 2.3 36.2 64 -3.8 25.1
20:35 1025 30.27 854 25.22 2.3 36.1 63 -4 24.8
20:40 1025 30.27 854 25.22 2.3 36.2 63 -4 24.8
20:45 1025 30.27 854 25.22 2.4 36.3 61 -4.3 24.2
20:50 1025 30.27 854 25.22 2.6 36.6 61 -4.2 24.4
20:55 1025 30.27 854 25.22 2.6 36.7 60 -4.3 24.3
21:00 1025 30.27 854 25.22 2.6 36.8 60 -4.4 24.1
21:05 1025 30.27 854 25.22 2.6 36.7 60 -4.4 24.1
21:10 1025 30.27 854 25.22 2.6 36.6 61 -4.2 24.5
21:15 1025 30.27 854 25.22 2.4 36.3 61 -4.3 24.2
21:20 1025 30.27 854 25.22 2.2 36 60 -4.6 23.6
21:25 1025 30.27 854 25.22 2.2 35.9 61 -4.6 23.7
21:30 1025 30.27 854 25.22 2 35.6 62 -4.6 23.7
21:35 1025 30.27 854 25.22 2 35.6 61 -4.9 23.3
21:40 1024 30.24 854 25.22 2 35.6 60 -4.9 23.1
21:45 1024 30.24 854 25.22 2 35.6 60 -5 23.1
21:50 1024 30.24 854 25.22 1.9 35.4 60 -5 23
21:55 1024 30.24 854 25.22 1.9 35.4 59 -5.3 22.5
22:00 1024 30.24 854 25.22 2.1 35.8 57 -5.5 22.2
22:05 1024 30.24 853 25.19 2.3 36.1 56 -5.5 22.1
22:10 1024 30.24 853 25.19 2.3 36.1 56 -5.6 22
22:15 1024 30.24 853 25.19 2.4 36.4 55 -5.6 21.9
22:20 1024 30.24 853 25.19 2.8 37 53 -5.8 21.6
22:25 1024 30.24 853 25.19 3.1 37.5 53 -5.7 21.8
22:30 1024 30.24 853 25.19 3 37.4 54 -5.3 22.4
22:35 1024 30.24 853 25.19 2.5 36.4 57 -5.1 22.7
22:40 1024 30.24 853 25.19 1.9 35.4 58 -5.5 22.2
22:45 1024 30.24 853 25.19 1.9 35.5 56 -5.9 21.4
22:50 1024 30.24 853 25.19 2.3 36.2 55 -5.9 21.4
22:55 1024 30.24 853 25.19 2.6 36.7 54 -5.7 21.7
23:00 1024 30.24 853 25.19 2.7 36.9 54 -5.8 21.6
23:05 1024 30.24 853 25.19 2.7 36.9 55 -5.5 22
23:10 1024 30.24 853 25.19 2.4 36.4 55 -5.6 21.9
23:15 1024 30.24 853 25.19 2 35.7 59 -5 22.9
23:20 1024 30.24 853 25.19 1.5 34.7 60 -5.4 22.3
23:25 1024 30.24 853 25.19 1.4 34.5 61 -5.3 22.5
23:30 1023 30.21 853 25.19 1.4 34.5 61 -5.4 22.3
23:35 1023 30.21 853 25.19 1.6 34.9 59 -5.5 22.1
23:40 1023 30.21 853 25.19 1.9 35.3 58 -5.5 22.2
23:45 1024 30.24 853 25.19 1.9 35.5 58 -5.5 22.1
23:50 1024 30.24 853 25.19 2.1 35.8 57 -5.5 22.1
23:55 1024 30.24 853 25.19 2.1 35.9 58 -5.4 22.4
24:00 1024 30.24 853 25.19 2.2 35.9 58 -5.3 22.4